Observation data for Snyder on 01/18/2019      Previous  Date  Next       Current Mesonet Observations  Soil Data  Daily Summary Page  Observations in Plain Language
KSYS 180600Z 18009KT 08/04 A3004 RMK A01 T00780035  RH  076%=      5-min Rain = 0
KSYS 180605Z 18009KT 08/04 A3003 RMK A01 T00770035  RH  076%=      5-min Rain = 0
KSYS 180610Z 18009KT 08/03 A3003 RMK A01 T00750034  RH  077%=      5-min Rain = 0
KSYS 180615Z 18009KT 08/04 A3003 RMK A01 T00750035  RH  077%=      5-min Rain = 0
KSYS 180620Z 18010KT 08/04 A3003 RMK A01 T00750035  RH  077%=      5-min Rain = 0
KSYS 180625Z 18010KT 07/03 A3003 RMK A01 T00740034  RH  077%=      5-min Rain = 0
KSYS 180630Z 18009KT 07/03 A3003 RMK A01 T00730034  RH  078%=      5-min Rain = 0
KSYS 180635Z 18009KT 07/04 A3003 RMK A01 T00740035  RH  078%=      5-min Rain = 0
KSYS 180640Z 18010KT 07/04 A3003 RMK A01 T00740035  RH  078%=      5-min Rain = 0
KSYS 180645Z 18010KT 08/04 A3003 RMK A01 T00750035  RH  077%=      5-min Rain = 0
KSYS 180650Z 18010KT 07/03 A3002 RMK A01 T00730034  RH  078%=      5-min Rain = 0
KSYS 180655Z 18011KT 07/03 A3002 RMK A01 T00710034  RH  079%=      5-min Rain = 0
KSYS 180700Z 18010KT 07/03 A3002 RMK A01 T00700034  RH  079%=      5-min Rain = 0
KSYS 180705Z 18009KT 07/03 A3002 RMK A01 T00690034  RH  080%=      5-min Rain = 0
KSYS 180710Z 18009KT 07/03 A3001 RMK A01 T00690034  RH  080%=      5-min Rain = 0
KSYS 180715Z 17009KT 07/03 A3001 RMK A01 T00680034  RH  080%=      5-min Rain = 0
KSYS 180720Z 18009KT 07/03 A3001 RMK A01 T00660033  RH  081%=      5-min Rain = 0
KSYS 180725Z 18009KT 07/03 A30 RMK A01 T00650033  RH  082%=      5-min Rain = 0
KSYS 180730Z 17009KT 06/03 A30 RMK A01 T00640033  RH  082%=      5-min Rain = 0
KSYS 180735Z 18010KT 06/03 A30 RMK A01 T00640033  RH  082%=      5-min Rain = 0
KSYS 180740Z 18010KT 06/03 A30 RMK A01 T00630033  RH  083%=      5-min Rain = 0
KSYS 180745Z 18010KT 06/03 A2999 RMK A01 T00620033  RH  083%=      5-min Rain = 0
KSYS 180750Z 18010KT 06/03 A2999 RMK A01 T00620033  RH  083%=      5-min Rain = 0
KSYS 180755Z 18010KT 06/03 A2999 RMK A01 T00620033  RH  083%=      5-min Rain = 0
KSYS 180800Z 18011KT 06/03 A2999 RMK A01 T00630034  RH  083%=      5-min Rain = 0
KSYS 180805Z 18010KT 06/03 A2998 RMK A01 T00640034  RH  082%=      5-min Rain = 0
KSYS 180810Z 17010KT 06/03 A2998 RMK A01 T00640034  RH  083%=      5-min Rain = 0
KSYS 180815Z 18009KT 06/03 A2998 RMK A01 T00630034  RH  083%=      5-min Rain = 0
KSYS 180820Z 18009KT 06/03 A2998 RMK A01 T00640034  RH  082%=      5-min Rain = 0
KSYS 180825Z 17009KT 06/03 A2998 RMK A01 T00640034  RH  082%=      5-min Rain = 0
KSYS 180830Z 18008KT 06/03 A2998 RMK A01 T00640034  RH  083%=      5-min Rain = 0
KSYS 180835Z 18008KT 07/03 A2998 RMK A01 T00650034  RH  082%=      5-min Rain = 0
KSYS 180840Z 18008KT 07/03 A2998 RMK A01 T00670034  RH  081%=      5-min Rain = 0
KSYS 180845Z 18009KT 07/03 A2998 RMK A01 T00690034  RH  080%=      5-min Rain = 0
KSYS 180850Z 18009KT 07/03 A2998 RMK A01 T00700034  RH  079%=      5-min Rain = 0
KSYS 180855Z 18009KT 07/03 A2997 RMK A01 T00700034  RH  079%=      5-min Rain = 0
KSYS 180900Z 18008KT 07/03 A2997 RMK A01 T00720034  RH  078%=      5-min Rain = 0
KSYS 180905Z 18008KT 07/03 A2997 RMK A01 T00720034  RH  078%=      5-min Rain = 0
KSYS 180910Z 18008KT 07/03 A2997 RMK A01 T00710034  RH  079%=      5-min Rain = 0
KSYS 180915Z 19008KT 07/03 A2997 RMK A01 T00700034  RH  079%=      5-min Rain = 0
KSYS 180920Z 19008KT 07/03 A2997 RMK A01 T00700034  RH  079%=      5-min Rain = 0
KSYS 180925Z 19008KT 07/03 A2997 RMK A01 T00700034  RH  080%=      5-min Rain = 0
KSYS 180930Z 18008KT 07/04 A2997 RMK A01 T00710035  RH  079%=      5-min Rain = 0
KSYS 180935Z 17009KT 07/03 A2997 RMK A01 T00720034  RH  078%=      5-min Rain = 0
KSYS 180940Z 17009KT 07/03 A2997 RMK A01 T00700034  RH  079%=      5-min Rain = 0
KSYS 180945Z 17009KT 07/03 A2997 RMK A01 T00680033  RH  080%=      5-min Rain = 0
KSYS 180950Z 17009KT 07/03 A2997 RMK A01 T00680033  RH  080%=      5-min Rain = 0
KSYS 180955Z 17009KT 07/03 A2996 RMK A01 T00680033  RH  080%=      5-min Rain = 0
KSYS 181000Z 17009KT 07/03 A2996 RMK A01 T00680033  RH  080%=      5-min Rain = 0
KSYS 181005Z 17009KT 07/03 A2996 RMK A01 T00680034  RH  080%=      5-min Rain = 0
KSYS 181010Z 17009KT 07/03 A2995 RMK A01 T00680034  RH  080%=      5-min Rain = 0
KSYS 181015Z 17009KT 07/03 A2995 RMK A01 T00670034  RH  081%=      5-min Rain = 0
KSYS 181020Z 17009KT 07/03 A2994 RMK A01 T00670034  RH  081%=      5-min Rain = 0
KSYS 181025Z 17009KT 07/03 A2994 RMK A01 T00660034  RH  082%=      5-min Rain = 0
KSYS 181030Z 17009KT 07/03 A2994 RMK A01 T00650034  RH  082%=      5-min Rain = 0
KSYS 181035Z 17009KT 07/04 A2994 RMK A01 T00650035  RH  082%=      5-min Rain = 0
KSYS 181040Z 17008KT 07/04 A2994 RMK A01 T00650035  RH  083%=      5-min Rain = 0
KSYS 181045Z 17009KT 06/04 A2993 RMK A01 T00640035  RH  083%=      5-min Rain = 0
KSYS 181050Z 17009KT 07/04 A2992 RMK A01 T00660036  RH  083%=      5-min Rain = 0
KSYS 181055Z 17009KT 07/04 A2992 RMK A01 T00670036  RH  082%=      5-min Rain = 0
KSYS 181100Z 17009KT 07/04 A2992 RMK A01 T00670036  RH  082%=      5-min Rain = 0
KSYS 181105Z 17010KT 07/04 A2991 RMK A01 T00670037  RH  083%=      5-min Rain = 0
KSYS 181110Z 17010KT 07/04 A2991 RMK A01 T00680038  RH  082%=      5-min Rain = 0
KSYS 181115Z 17010KT 07/04 A2991 RMK A01 T00690038  RH  082%=      5-min Rain = 0
KSYS 181120Z 18010KT 07/04 A2991 RMK A01 T00700039  RH  082%=      5-min Rain = 0
KSYS 181125Z 18011KT 07/04 A2991 RMK A01 T00720039  RH  081%=      5-min Rain = 0
KSYS 181130Z 18010KT 07/04 A299 RMK A01 T00730039  RH  080%=      5-min Rain = 0
KSYS 181135Z 18010KT 07/04 A299 RMK A01 T00730039  RH  080%=      5-min Rain = 0
KSYS 181140Z 17010KT 07/04 A299 RMK A01 T00740039  RH  080%=      5-min Rain = 0
KSYS 181145Z 17010KT 07/04 A299 RMK A01 T00730039  RH  080%=      5-min Rain = 0
KSYS 181150Z 18009KT 07/04 A299 RMK A01 T00720038  RH  081%=      5-min Rain = 0
KSYS 181155Z 18009KT 07/04 A299 RMK A01 T00720038  RH  081%=      5-min Rain = 0
KSYS 181200Z 18009KT 07/04 A2989 RMK A01 T00710037  RH  081%=      5-min Rain = 0
KSYS 181205Z 18009KT 07/04 A2989 RMK A01 T00690037  RH  081%=      5-min Rain = 0
KSYS 181210Z 18009KT 07/04 A2989 RMK A01 T00680036  RH  082%=      5-min Rain = 0
KSYS 181215Z 17009KT 07/04 A2988 RMK A01 T00650035  RH  083%=      5-min Rain = 0
KSYS 181220Z 17009KT 06/03 A2988 RMK A01 T00620034  RH  084%=      5-min Rain = 0
KSYS 181225Z 17009KT 06/04 A2988 RMK A01 T00620035  RH  084%=      5-min Rain = 0
KSYS 181230Z 17009KT 06/04 A2988 RMK A01 T00610035  RH  085%=      5-min Rain = 0
KSYS 181235Z 17009KT 06/03 A2988 RMK A01 T00600034  RH  085%=      5-min Rain = 0
KSYS 181240Z 17008KT 06/03 A2988 RMK A01 T00590034  RH  085%=      5-min Rain = 0
KSYS 181245Z 17008KT 06/03 A2987 RMK A01 T00580033  RH  086%=      5-min Rain = 0
KSYS 181250Z 17008KT 06/03 A2987 RMK A01 T00570033  RH  086%=      5-min Rain = 0
KSYS 181255Z 17008KT 06/03 A2987 RMK A01 T00560033  RH  086%=      5-min Rain = 0
KSYS 181300Z 18008KT 06/03 A2987 RMK A01 T00570033  RH  086%=      5-min Rain = 0
KSYS 181305Z 17009KT 06/03 A2987 RMK A01 T00570033  RH  086%=      5-min Rain = 0
KSYS 181310Z 17009KT 06/03 A2986 RMK A01 T00580034  RH  086%=      5-min Rain = 0
KSYS 181315Z 17010KT 06/04 A2986 RMK A01 T00600035  RH  086%=      5-min Rain = 0
KSYS 181320Z 18010KT 06/04 A2986 RMK A01 T00610035  RH  085%=      5-min Rain = 0
KSYS 181325Z 18010KT 06/04 A2986 RMK A01 T00610036  RH  085%=      5-min Rain = 0
KSYS 181330Z 19010KT 06/04 A2986 RMK A01 T00640037  RH  084%=      5-min Rain = 0
KSYS 181335Z 19011KT 06/04 A2986 RMK A01 T00640037  RH  084%=      5-min Rain = 0
KSYS 181340Z 19011KT 07/04 A2986 RMK A01 T00650037  RH  084%=      5-min Rain = 0
KSYS 181345Z 19011KT 06/04 A2986 RMK A01 T00630036  RH  084%=      5-min Rain = 0
KSYS 181350Z 18011KT 06/04 A2986 RMK A01 T00620036  RH  085%=      5-min Rain = 0
KSYS 181355Z 18011KT 06/04 A2985 RMK A01 T00620037  RH  086%=      5-min Rain = 0
KSYS 181400Z 18011KT 06/04 A2985 RMK A01 T00630038  RH  086%=      5-min Rain = 0
KSYS 181405Z 19011KT 06/04 A2985 RMK A01 T00640038  RH  085%=      5-min Rain = 0
KSYS 181410Z 19011KT 07/04 A2985 RMK A01 T00660039  RH  085%=      5-min Rain = 0
KSYS 181415Z 19011KT 07/04 A2985 RMK A01 T00700040  RH  083%=      5-min Rain = 0
KSYS 181420Z 19010KT 07/04 A2986 RMK A01 T00720041  RH  082%=      5-min Rain = 0
KSYS 181425Z 19010KT 07/04 A2985 RMK A01 T00740041  RH  082%=      5-min Rain = 0
KSYS 181430Z 19010KT 08/04 A2986 RMK A01 T00750042  RH  081%=      5-min Rain = 0
KSYS 181435Z 20009KT 08/04 A2986 RMK A01 T00770042  RH  081%=      5-min Rain = 0
KSYS 181440Z 20008KT 08/04 A2986 RMK A01 T00780043  RH  080%=      5-min Rain = 0
KSYS 181445Z 21008KT 08/04 A2986 RMK A01 T00800044  RH  080%=      5-min Rain = 0
KSYS 181450Z 21006KT 08/05 A2987 RMK A01 T00830046  RH  079%=      5-min Rain = 0
KSYS 181455Z 20007KT 09/05 A2986 RMK A01 T00870048  RH  078%=      5-min Rain = 0
KSYS 181500Z 20009KT 09/05 A2986 RMK A01 T00910050  RH  077%=      5-min Rain = 0
KSYS 181505Z 19010KT 10/05 A2986 RMK A01 T00970051  RH  075%=      5-min Rain = 0
KSYS 181510Z 19010KT 10/05 A2985 RMK A01 T01020054  RH  074%=      5-min Rain = 0
KSYS 181515Z 19009KT 11/06 A2985 RMK A01 T01060055  RH  072%=      5-min Rain = 0
KSYS 181520Z 18010KT 11/06 A2984 RMK A01 T01050056  RH  073%=      5-min Rain = 0
KSYS 181525Z 18011KT 11/06 A2984 RMK A01 T01070056  RH  072%=      5-min Rain = 0
KSYS 181530Z 19010KT 11/06 A2984 RMK A01 T01060056  RH  073%=      5-min Rain = 0
KSYS 181535Z 19011KT 11/06 A2985 RMK A01 T01050055  RH  073%=      5-min Rain = 0
KSYS 181540Z 19011KT 10/06 A2985 RMK A01 T01040055  RH  073%=      5-min Rain = 0
KSYS 181545Z 19010KT 11/06 A2985 RMK A01 T01110058  RH  072%=      5-min Rain = 0
KSYS 181550Z 19008KT 12/06 A2985 RMK A01 T01150059  RH  070%=      5-min Rain = 0
KSYS 181555Z 19009KT 12/06 A2985 RMK A01 T01160059  RH  070%=      5-min Rain = 0
KSYS 181600Z 19010KT 12/06 A2985 RMK A01 T01150059  RH  070%=      5-min Rain = 0
KSYS 181605Z 19009KT 12/06 A2985 RMK A01 T01160061  RH  070%=      5-min Rain = 0
KSYS 181610Z 19010KT 13/06 A2985 RMK A01 T01260064  RH  068%=      5-min Rain = 0
KSYS 181615Z 19011KT 14/07 A2985 RMK A01 T01370066  RH  064%=      5-min Rain = 0
KSYS 181620Z 19012KT 14/07 A2984 RMK A01 T01440065  RH  061%=      5-min Rain = 0
KSYS 181625Z 19011G17KT 15/07 A2984 RMK A01 T01480066  RH  059%=      5-min Rain = 0
KSYS 181630Z 19011G20KT 15/07 A2984 RMK A01 T01520066  RH  058%=      5-min Rain = 0
KSYS 181635Z 19011KT 16/07 A2984 RMK A01 T01560066  RH  056%=      5-min Rain = 0
KSYS 181640Z 20012KT 16/06 A2984 RMK A01 T01570064  RH  055%=      5-min Rain = 0
KSYS 181645Z 20012G18KT 16/06 A2984 RMK A01 T01610064  RH  054%=      5-min Rain = 0
KSYS 181650Z 20012G18KT 17/06 A2984 RMK A01 T01650063  RH  052%=      5-min Rain = 0
KSYS 181655Z 20013KT 17/06 A2983 RMK A01 T01700064  RH  051%=      5-min Rain = 0
KSYS 181700Z 20011G17KT 17/07 A2983 RMK A01 T01730065  RH  050%=      5-min Rain = 0
KSYS 181705Z 21014G21KT 18/06 A2983 RMK A01 T01760064  RH  049%=      5-min Rain = 0
KSYS 181710Z 21013KT 18/06 A2982 RMK A01 T01820063  RH  047%=      5-min Rain = 0
KSYS 181715Z 22013G21KT 19/06 A2982 RMK A01 T01870057  RH  043%=      5-min Rain = 0
KSYS 181720Z 22016G22KT 19/05 A2982 RMK A01 T01930048  RH  039%=      5-min Rain = 0
KSYS 181725Z 22017G23KT 20/05 A2982 RMK A01 T01960045  RH  038%=      5-min Rain = 0
KSYS 181730Z 22018G24KT 20/04 A2981 RMK A01 T01970043  RH  037%=      5-min Rain = 0
KSYS 181735Z 23016G25KT 20/05 A2981 RMK A01 T01980045  RH  037%=      5-min Rain = 0
KSYS 181740Z 22017G24KT 20/04 A298 RMK A01 T01980044  RH  037%=      5-min Rain = 0
KSYS 181745Z 23016G25KT 20/04 A298 RMK A01 T02010040  RH  035%=      5-min Rain = 0
KSYS 181750Z 23016G24KT 20/04 A2979 RMK A01 T02020040  RH  035%=      5-min Rain = 0
KSYS 181755Z 23018G25KT 21/04 A2979 RMK A01 T02060038  RH  034%=      5-min Rain = 0
KSYS 181800Z 23017G26KT 21/04 A2979 RMK A01 T02060036  RH  033%=      5-min Rain = 0
KSYS 181805Z 23017G25KT 21/03 A2978 RMK A01 T02070034  RH  033%=      5-min Rain = 0
KSYS 181810Z 23015G23KT 21/03 A2978 RMK A01 T02090033  RH  032%=      5-min Rain = 0
KSYS 181815Z 23018G27KT 22/03 A2977 RMK A01 T02150031  RH  030%=      5-min Rain = 0
KSYS 181820Z 23018G28KT 21/03 A2976 RMK A01 T02140029  RH  030%=      5-min Rain = 0
KSYS 181825Z 23017G23KT 21/03 A2976 RMK A01 T02120030  RH  031%=      5-min Rain = 0
KSYS 181830Z 23015G22KT 22/03 A2975 RMK A01 T02170034  RH  030%=      5-min Rain = 0
KSYS 181835Z 23016G24KT 22/03 A2975 RMK A01 T02180033  RH  030%=      5-min Rain = 0
KSYS 181840Z 25019G27KT 22/03 A2974 RMK A01 T02240027  RH  028%=      5-min Rain = 0
KSYS 181845Z 25017G26KT 22/02 A2974 RMK A01 T02220021  RH  027%=      5-min Rain = 0
KSYS 181850Z 26016G28KT 22/02 A2973 RMK A01 T02200020  RH  027%=      5-min Rain = 0
KSYS 181855Z 26019G28KT 22/02 A2973 RMK A01 T02160018  RH  027%=      5-min Rain = 0
KSYS 181900Z 25021G28KT 21/02 A2973 RMK A01 T02140018  RH  028%=      5-min Rain = 0
KSYS 181905Z 25019G30KT 22/02 A2973 RMK A01 T02170021  RH  028%=      5-min Rain = 0
KSYS 181910Z 25023G31KT 22/02 A2972 RMK A01 T02170020  RH  028%=      5-min Rain = 0
KSYS 181915Z 25019G29KT 21/02 A2972 RMK A01 T02110020  RH  029%=      5-min Rain = 0
KSYS 181920Z 26020G26KT 21/02 A2972 RMK A01 T02110020  RH  029%=      5-min Rain = 0
KSYS 181925Z 25021G31KT 21/02 A2972 RMK A01 T02120019  RH  028%=      5-min Rain = 0
KSYS 181930Z 26021G29KT 21/02 A2971 RMK A01 T02110018  RH  028%=      5-min Rain = 0
KSYS 181935Z 25022G30KT 21/02 A2971 RMK A01 T02080018  RH  029%=      5-min Rain = 0
KSYS 181940Z 25019G27KT 21/02 A2971 RMK A01 T02070019  RH  029%=      5-min Rain = 0
KSYS 181945Z 25021G31KT 21/02 A297 RMK A01 T02060017  RH  029%=      5-min Rain = 0
KSYS 181950Z 26017G25KT 21/02 A297 RMK A01 T02050018  RH  029%=      5-min Rain = 0
KSYS 181955Z 26019G28KT 21/02 A297 RMK A01 T02050017  RH  029%=      5-min Rain = 0
KSYS 182000Z 26019G27KT 21/02 A297 RMK A01 T02050018  RH  029%=      5-min Rain = 0
KSYS 182005Z 25020G30KT 21/02 A2969 RMK A01 T02060018  RH  029%=      5-min Rain = 0
KSYS 182010Z 26019G26KT 21/02 A2968 RMK A01 T02070019  RH  029%=      5-min Rain = 0
KSYS 182015Z 26017G25KT 21/02 A2968 RMK A01 T02080019  RH  029%=      5-min Rain = 0
KSYS 182020Z 25019G32KT 21/02 A2968 RMK A01 T02090018  RH  029%=      5-min Rain = 0
KSYS 182025Z 26019G27KT 21/02 A2968 RMK A01 T02100019  RH  029%=      5-min Rain = 0
KSYS 182030Z 26019G28KT 21/02 A2967 RMK A01 T02100018  RH  028%=      5-min Rain = 0
KSYS 182035Z 26018G28KT 21/02 A2967 RMK A01 T02120020  RH  028%=      5-min Rain = 0
KSYS 182040Z 27019G26KT 22/02 A2967 RMK A01 T02160018  RH  027%=      5-min Rain = 0
KSYS 182045Z 27020G27KT 22/02 A2967 RMK A01 T02190017  RH  027%=      5-min Rain = 0
KSYS 182050Z 26019G27KT 22/02 A2967 RMK A01 T02190017  RH  027%=      5-min Rain = 0
KSYS 182055Z 27020G31KT 22/02 A2967 RMK A01 T02200016  RH  026%=      5-min Rain = 0
KSYS 182100Z 26019G26KT 22/02 A2967 RMK A01 T02210016  RH  026%=      5-min Rain = 0
KSYS 182105Z 26019G26KT 22/02 A2967 RMK A01 T02210017  RH  026%=      5-min Rain = 0
KSYS 182110Z 27021G29KT 22/02 A2967 RMK A01 T02210016  RH  026%=      5-min Rain = 0
KSYS 182115Z 27021G31KT 22/01 A2967 RMK A01 T02200014  RH  026%=      5-min Rain = 0
KSYS 182120Z 27019G26KT 22/02 A2967 RMK A01 T02200015  RH  026%=      5-min Rain = 0
KSYS 182125Z 27018G26KT 22/02 A2967 RMK A01 T02210015  RH  026%=      5-min Rain = 0
KSYS 182130Z 26020G28KT 22/02 A2967 RMK A01 T02200015  RH  026%=      5-min Rain = 0
KSYS 182135Z 26019G29KT 21/01 A2967 RMK A01 T02140014  RH  027%=      5-min Rain = 0
KSYS 182140Z 26017G27KT 21/01 A2967 RMK A01 T02130014  RH  027%=      5-min Rain = 0
KSYS 182145Z 26018G27KT 21/01 A2967 RMK A01 T02130014  RH  027%=      5-min Rain = 0
KSYS 182150Z 26017G24KT 21/01 A2967 RMK A01 T02110014  RH  027%=      5-min Rain = 0
KSYS 182155Z 26014G25KT 21/02 A2967 RMK A01 T02100015  RH  028%=      5-min Rain = 0
KSYS 182200Z 26015G24KT 21/01 A2967 RMK A01 T02100014  RH  028%=      5-min Rain = 0
KSYS 182205Z 26015G24KT 21/01 A2967 RMK A01 T02090013  RH  028%=      5-min Rain = 0
KSYS 182210Z 26016G23KT 21/01 A2968 RMK A01 T02090013  RH  028%=      5-min Rain = 0
KSYS 182215Z 26017G25KT 21/01 A2968 RMK A01 T02090013  RH  028%=      5-min Rain = 0
KSYS 182220Z 27017G23KT 21/01 A2968 RMK A01 T02080012  RH  027%=      5-min Rain = 0
KSYS 182225Z 27015G21KT 21/01 A2968 RMK A01 T02070012  RH  028%=      5-min Rain = 0
KSYS 182230Z 28015G22KT 21/01 A2968 RMK A01 T02070014  RH  028%=      5-min Rain = 0
KSYS 182235Z 28016KT 21/02 A2968 RMK A01 T02050015  RH  029%=      5-min Rain = 0
KSYS 182240Z 28016G23KT 20/02 A2968 RMK A01 T02030015  RH  029%=      5-min Rain = 0
KSYS 182245Z 28017G22KT 20/02 A2968 RMK A01 T02020016  RH  029%=      5-min Rain = 0
KSYS 182250Z 29016G22KT 20/02 A2968 RMK A01 T02010016  RH  030%=      5-min Rain = 0
KSYS 182255Z 28016G24KT 20/02 A2969 RMK A01 T01990017  RH  030%=      5-min Rain = 0
KSYS 182300Z 28018G26KT 20/02 A2968 RMK A01 T01960021  RH  031%=      5-min Rain = 0
KSYS 182305Z 29019G25KT 19/02 A2968 RMK A01 T01930023  RH  033%=      5-min Rain = 0
KSYS 182310Z 28017G24KT 19/02 A2969 RMK A01 T01910023  RH  033%=      5-min Rain = 0
KSYS 182315Z 28015KT 19/02 A2968 RMK A01 T01890024  RH  034%=      5-min Rain = 0
KSYS 182320Z 27013G18KT 19/03 A2969 RMK A01 T01870026  RH  035%=      5-min Rain = 0
KSYS 182325Z 27015G20KT 19/03 A2969 RMK A01 T01850027  RH  035%=      5-min Rain = 0
KSYS 182330Z 27014KT 18/03 A297 RMK A01 T01840028  RH  036%=      5-min Rain = 0
KSYS 182335Z 26014G19KT 18/03 A297 RMK A01 T01830028  RH  036%=      5-min Rain = 0
KSYS 182340Z 27013G18KT 18/03 A297 RMK A01 T01830028  RH  036%=      5-min Rain = 0
KSYS 182345Z 27015G20KT 18/03 A297 RMK A01 T01820029  RH  037%=      5-min Rain = 0
KSYS 182350Z 28016G23KT 18/03 A297 RMK A01 T01810028  RH  037%=      5-min Rain = 0
KSYS 182355Z 28018G26KT 18/03 A297 RMK A01 T01790026  RH  037%=      5-min Rain = 0
KSYS 190000Z 29017G25KT 18/02 A297 RMK A01 T01780017  RH  035%=      5-min Rain = 0
KSYS 190005Z 28018G26KT 18/01 A297 RMK A01 T01770010  RH  033%=      5-min Rain = 0
KSYS 190010Z 29022G29KT 18/00 A2971 RMK A01 T01760002  RH  031%=      5-min Rain = 0
KSYS 190015Z 28022G32KT 18/M00 A2972 RMK A01 T01761004  RH  030%=      5-min Rain = 0
KSYS 190020Z 28025G38KT 17/03 A2975 RMK A01 T01660032  RH  043%=      5-min Rain = 0
KSYS 190025Z 28023G37KT 14/06 A2975 RMK A01 T01370060  RH  061%=      5-min Rain = 0.01
KSYS 190030Z 27016G23KT 14/05 A2974 RMK A01 T01380052  RH  057%=      5-min Rain = 0
KSYS 190035Z 27014G22KT 14/04 A2974 RMK A01 T01420044  RH  053%=      5-min Rain = 0
KSYS 190040Z 27013G18KT 15/04 A2974 RMK A01 T01450041  RH  051%=      5-min Rain = 0
KSYS 190045Z 27018G33KT 15/04 A2976 RMK A01 T01460036  RH  048%=      5-min Rain = 0
KSYS 190050Z 29030G44KT 15/02 A2976 RMK A01 T01460017  RH  042%=      5-min Rain = 0
KSYS 190055Z 28019G30KT 15/00 A2975 RMK A01 T01500004  RH  037%=      5-min Rain = 0
KSYS 190100Z 27016G25KT 15/00 A2974 RMK A01 T01510001  RH  037%=      5-min Rain = 0
KSYS 190105Z 27021G36KT 15/M02 A2974 RMK A01 T01541016  RH  031%=      5-min Rain = 0
KSYS 190110Z 27021G30KT 16/M02 A2974 RMK A01 T01581019  RH  030%=      5-min Rain = 0
KSYS 190115Z 27019G28KT 16/M02 A2974 RMK A01 T01581022  RH  029%=      5-min Rain = 0
KSYS 190120Z 27019G28KT 16/M03 A2974 RMK A01 T01581025  RH  029%=      5-min Rain = 0
KSYS 190125Z 29025G37KT 16/M03 A2973 RMK A01 T01571032  RH  027%=      5-min Rain = 0
KSYS 190130Z 28016G25KT 16/M04 A2972 RMK A01 T01561035  RH  027%=      5-min Rain = 0
KSYS 190135Z 28013G18KT 15/M03 A2972 RMK A01 T01531033  RH  028%=      5-min Rain = 0
KSYS 190140Z 27014G21KT 15/M03 A2973 RMK A01 T01511034  RH  028%=      5-min Rain = 0
KSYS 190145Z 27013KT 15/M03 A2973 RMK A01 T01481034  RH  029%=      5-min Rain = 0
KSYS 190150Z 27014G19KT 15/M03 A2974 RMK A01 T01461033  RH  029%=      5-min Rain = 0
KSYS 190155Z 27014G21KT 15/M03 A2975 RMK A01 T01461034  RH  029%=      5-min Rain = 0
KSYS 190200Z 26014G21KT 15/M04 A2974 RMK A01 T01471035  RH  029%=      5-min Rain = 0
KSYS 190205Z 26015G21KT 15/M03 A2975 RMK A01 T01461034  RH  029%=      5-min Rain = 0
KSYS 190210Z 26013G19KT 14/M03 A2976 RMK A01 T01441032  RH  030%=      5-min Rain = 0
KSYS 190215Z 26014G20KT 14/M03 A2976 RMK A01 T01431032  RH  030%=      5-min Rain = 0
KSYS 190220Z 25013G20KT 14/M03 A2976 RMK A01 T01421032  RH  030%=      5-min Rain = 0
KSYS 190225Z 25014G20KT 14/M03 A2976 RMK A01 T01411032  RH  030%=      5-min Rain = 0
KSYS 190230Z 26014G22KT 14/M03 A2976 RMK A01 T01401033  RH  030%=      5-min Rain = 0
KSYS 190235Z 26017G24KT 14/M04 A2975 RMK A01 T01401035  RH  030%=      5-min Rain = 0
KSYS 190240Z 27021G29KT 14/M04 A2975 RMK A01 T01421035  RH  029%=      5-min Rain = 0
KSYS 190245Z 28022G32KT 14/M03 A2976 RMK A01 T01411031  RH  030%=      5-min Rain = 0
KSYS 190250Z 29031G46KT 14/M02 A2976 RMK A01 T01371018  RH  034%=      5-min Rain = 0
KSYS 190255Z 31039G52KT 12/M00 A2977 RMK A01 T01201001  RH  044%=      5-min Rain = 0
KSYS 190300Z 32040G52KT 11/01 A2978 RMK A01 T01060006  RH  051%=      5-min Rain = 0
KSYS 190305Z 32037G47KT 10/01 A2979 RMK A01 T00970006  RH  054%=      5-min Rain = 0
KSYS 190310Z 32035G43KT 09/01 A298 RMK A01 T00910007  RH  056%=      5-min Rain = 0
KSYS 190315Z 32032G42KT 09/01 A298 RMK A01 T00860006  RH  058%=      5-min Rain = 0
KSYS 190320Z 32030G40KT 08/01 A298 RMK A01 T00810005  RH  059%=      5-min Rain = 0
KSYS 190325Z 33027G35KT 08/01 A2981 RMK A01 T00780005  RH  061%=      5-min Rain = 0
KSYS 190330Z 32031G39KT 07/00 A2982 RMK A01 T00740004  RH  061%=      5-min Rain = 0
KSYS 190335Z 32032G42KT 07/00 A2982 RMK A01 T00720003  RH  062%=      5-min Rain = 0
KSYS 190340Z 33030G40KT 07/00 A2983 RMK A01 T00690003  RH  063%=      5-min Rain = 0
KSYS 190345Z 33027G34KT 07/00 A2984 RMK A01 T00670003  RH  064%=      5-min Rain = 0
KSYS 190350Z 32026G32KT 07/00 A2986 RMK A01 T00650002  RH  065%=      5-min Rain = 0
KSYS 190355Z 32028G34KT 06/00 A2986 RMK A01 T00640002  RH  065%=      5-min Rain = 0
KSYS 190400Z 33028G36KT 06/00 A2987 RMK A01 T00620002  RH  066%=      5-min Rain = 0
KSYS 190405Z 33029G37KT 06/00 A2988 RMK A01 T00590001  RH  067%=      5-min Rain = 0
KSYS 190410Z 33028G35KT 06/00 A2989 RMK A01 T00580001  RH  068%=      5-min Rain = 0
KSYS 190415Z 33025G31KT 06/00 A2989 RMK A01 T00570001  RH  068%=      5-min Rain = 0
KSYS 190420Z 33022G27KT 06/00 A299 RMK A01 T00570002  RH  068%=      5-min Rain = 0
KSYS 190425Z 33021G26KT 06/00 A2991 RMK A01 T00570002  RH  068%=      5-min Rain = 0
KSYS 190430Z 33020G26KT 06/00 A2991 RMK A01 T00580003  RH  068%=      5-min Rain = 0
KSYS 190435Z 33021G28KT 06/00 A2991 RMK A01 T00590003  RH  068%=      5-min Rain = 0
KSYS 190440Z 33028G38KT 06/00 A2992 RMK A01 T00590001  RH  067%=      5-min Rain = 0
KSYS 190445Z 34029G37KT 06/M00 A2992 RMK A01 T00571003  RH  066%=      5-min Rain = 0
KSYS 190450Z 32031G38KT 06/M01 A2992 RMK A01 T00551006  RH  066%=      5-min Rain = 0
KSYS 190455Z 32028G35KT 05/M01 A2993 RMK A01 T00531007  RH  066%=      5-min Rain = 0
KSYS 190500Z 32027G35KT 05/M01 A2994 RMK A01 T00521007  RH  066%=      5-min Rain = 0
KSYS 190505Z 33024G31KT 05/M01 A2994 RMK A01 T00511007  RH  067%=      5-min Rain = 0
KSYS 190510Z 32026G33KT 05/M01 A2994 RMK A01 T00511006  RH  067%=      5-min Rain = 0
KSYS 190515Z 32026G33KT 05/M01 A2995 RMK A01 T00511007  RH  067%=      5-min Rain = 0
KSYS 190520Z 32024G32KT 05/M01 A2996 RMK A01 T00511008  RH  066%=      5-min Rain = 0
KSYS 190525Z 33025G34KT 05/M01 A2996 RMK A01 T00511011  RH  065%=      5-min Rain = 0
KSYS 190530Z 33028G37KT 05/M01 A2997 RMK A01 T00501014  RH  064%=      5-min Rain = 0
KSYS 190535Z 34024G30KT 05/M01 A2997 RMK A01 T00501014  RH  064%=      5-min Rain = 0
KSYS 190540Z 34022G30KT 05/M02 A2997 RMK A01 T00491015  RH  064%=      5-min Rain = 0
KSYS 190545Z 33023G32KT 05/M01 A2998 RMK A01 T00491014  RH  064%=      5-min Rain = 0
KSYS 190550Z 33030G39KT 05/M02 A2997 RMK A01 T00491015  RH  064%=      5-min Rain = 0
KSYS 190555Z 33029G37KT 05/M02 A2998 RMK A01 T00481016  RH  064%=      5-min Rain = 0

Page generated in 0.011 seconds.